Time;durP1;ratioP1;P1;durP2;ratioP2;P2;SDS_P1;SDS_P2;PMS_P1;PMS_P2;Temp;Humidity;BMP_temperature;BMP_pressure;BME280_temperature;BME280_humidity;BME280_pressure;Samples;Min_cycle;Max_cycle;Signal;HPM_P1;HPM_P2
2021/04/18 00:01:38;;;;;;;7.13;3.50;;;13.50;41.90;;;;;;5035239;28;20036;-63
2021/04/18 00:04:05;;;;;;;6.10;3.88;;;13.40;42.00;;;;;;5035220;28;20025;-66
2021/04/18 00:06:34;;;;;;;6.97;3.53;;;13.30;42.10;;;;;;5035188;28;20108;-64
2021/04/18 00:09:00;;;;;;;6.97;3.58;;;13.40;42.20;;;;;;5033672;28;20363;-66
2021/04/18 00:11:26;;;;;;;8.02;3.85;;;13.40;42.20;;;;;;5035061;28;20029;-66
2021/04/18 00:13:51;;;;;;;8.57;4.30;;;13.30;42.10;;;;;;5035071;28;20029;-64
2021/04/18 00:16:18;;;;;;;10.60;4.30;;;13.20;42.20;;;;;;5034885;28;20038;-64
2021/04/18 00:18:44;;;;;;;8.32;4.15;;;13.10;42.10;;;;;;5034859;28;20136;-67
2021/04/18 00:21:09;;;;;;;8.95;3.72;;;13.10;42.10;;;;;;5034556;28;20494;-65
2021/04/18 00:23:36;;;;;;;7.60;3.88;;;13.10;42.40;;;;;;5033700;28;20052;-64
2021/04/18 00:26:01;;;;;;;7.90;4.20;;;13.10;42.50;;;;;;5033639;28;20120;-64
2021/04/18 00:28:27;;;;;;;7.70;3.80;;;13.00;42.40;;;;;;5033280;28;20137;-65
2021/04/18 00:30:53;;;;;;;6.85;3.83;;;13.00;42.60;;;;;;5033651;28;20059;-64
2021/04/18 00:33:19;;;;;;;9.35;3.85;;;12.90;42.70;;;;;;5033341;28;20029;-66
2021/04/18 00:35:44;;;;;;;7.38;4.00;;;12.90;42.90;;;;;;5033330;28;20029;-63
2021/04/18 00:38:10;;;;;;;9.80;4.20;;;12.80;42.70;;;;;;5033633;28;20030;-64
2021/04/18 00:40:38;;;;;;;7.57;3.97;;;12.80;43.00;;;;;;5033430;28;20049;-63
2021/04/18 00:43:04;;;;;;;8.07;4.05;;;12.70;42.90;;;;;;5033416;28;20084;-63
2021/04/18 00:45:30;;;;;;;6.97;3.70;;;12.70;42.90;;;;;;5033604;28;20504;-64
2021/04/18 00:47:57;;;;;;;7.03;3.92;;;12.60;43.00;;;;;;5033192;28;20485;-64
2021/04/18 00:50:26;;;;;;;7.88;3.80;;;12.70;43.40;;;;;;5033123;28;20026;-65
2021/04/18 00:52:52;;;;;;;9.20;3.95;;;12.70;43.40;;;;;;5032792;28;20474;-67
2021/04/18 00:55:20;;;;;;;9.93;3.85;;;12.70;43.40;;;;;;5033119;28;20356;-64
2021/04/18 00:57:46;;;;;;;6.43;3.88;;;12.70;43.50;;;;;;5033599;28;20461;-63
2021/04/18 01:00:12;;;;;;;8.27;4.38;;;12.70;43.60;;;;;;5033167;28;20102;-65
2021/04/18 01:02:38;;;;;;;7.65;4.07;;;12.70;43.70;;;;;;5033172;28;20078;-65
2021/04/18 01:05:05;;;;;;;10.48;4.15;;;12.80;43.80;;;;;;5033229;28;20032;-64
2021/04/18 01:07:32;;;;;;;8.55;4.07;;;12.80;43.90;;;;;;5032830;28;20029;-63
2021/04/18 01:09:58;;;;;;;9.25;3.90;;;12.60;43.50;;;;;;5032919;28;20030;-65
2021/04/18 01:12:24;;;;;;;9.25;3.80;;;12.50;43.80;;;;;;5032916;28;20076;-63
2021/04/18 01:14:50;;;;;;;6.85;3.78;;;12.40;43.80;;;;;;5032890;28;20037;-65
2021/04/18 01:17:16;;;;;;;7.78;3.97;;;12.40;43.80;;;;;;5032937;28;20493;-63
2021/04/18 01:19:42;;;;;;;7.43;3.38;;;12.50;44.30;;;;;;5033416;28;20033;-63
2021/04/18 01:22:08;;;;;;;9.82;4.20;;;12.40;44.20;;;;;;5008592;28;695958;-64
2021/04/18 01:24:34;;;;;;;7.75;4.28;;;12.30;44.20;;;;;;5033378;28;20360;-64
2021/04/18 01:26:59;;;;;;;8.63;3.88;;;12.30;44.40;;;;;;5033635;28;20501;-68
2021/04/18 01:29:25;;;;;;;8.93;4.20;;;12.30;44.40;;;;;;5033502;28;20504;-63
2021/04/18 01:31:51;;;;;;;9.05;3.97;;;12.20;44.30;;;;;;5033577;28;20103;-63
2021/04/18 01:34:17;;;;;;;7.55;3.78;;;12.10;44.50;;;;;;5033303;28;20498;-62
2021/04/18 01:36:45;;;;;;;10.57;4.18;;;12.00;44.80;;;;;;5033324;28;20033;-63
2021/04/18 01:39:12;;;;;;;8.80;3.90;;;12.00;44.70;;;;;;5033265;28;20359;-63
2021/04/18 01:41:38;;;;;;;9.93;4.45;;;12.00;44.90;;;;;;5033433;28;20036;-62
2021/04/18 01:44:05;;;;;;;8.20;3.95;;;12.00;44.90;;;;;;5033433;28;20512;-63
2021/04/18 01:46:32;;;;;;;8.32;4.03;;;12.00;45.00;;;;;;5033282;28;20382;-63
2021/04/18 01:48:57;;;;;;;11.25;4.10;;;11.90;45.10;;;;;;5031916;28;20599;-63
2021/04/18 01:51:25;;;;;;;9.43;4.18;;;11.90;45.30;;;;;;5033103;28;20108;-63
2021/04/18 01:53:52;;;;;;;10.00;3.80;;;11.80;45.00;;;;;;5033189;28;20486;-63
2021/04/18 01:56:17;;;;;;;6.63;3.90;;;11.80;45.40;;;;;;5033056;28;20037;-63
2021/04/18 01:58:43;;;;;;;6.38;3.72;;;11.80;45.50;;;;;;5033177;28;20027;-64
2021/04/18 02:01:09;;;;;;;8.52;4.20;;;11.70;45.30;;;;;;5033185;28;20060;-63
2021/04/18 02:03:34;;;;;;;7.90;4.15;;;11.60;45.50;;;;;;5032936;28;20028;-65
2021/04/18 02:06:00;;;;;;;7.10;3.88;;;11.60;45.60;;;;;;5032301;28;20033;-66
2021/04/18 02:08:26;;;;;;;11.32;3.92;;;11.60;45.80;;;;;;5033009;28;20018;-65
2021/04/18 02:10:52;;;;;;;8.45;3.63;;;11.70;45.70;;;;;;5032914;28;20475;-65
2021/04/18 02:13:18;;;;;;;8.98;4.10;;;11.60;46.00;;;;;;5033073;28;20348;-63
2021/04/18 02:15:43;;;;;;;9.43;4.05;;;11.70;45.90;;;;;;5032805;28;20083;-66
2021/04/18 02:18:09;;;;;;;6.40;3.70;;;11.60;45.90;;;;;;5032723;28;20026;-64
2021/04/18 02:20:35;;;;;;;6.45;3.70;;;11.60;45.80;;;;;;5032780;28;20099;-63
2021/04/18 02:23:00;;;;;;;5.72;3.90;;;11.60;45.90;;;;;;5032502;28;20064;-64
2021/04/18 02:25:26;;;;;;;8.27;4.13;;;11.70;46.30;;;;;;5033546;28;20030;-63
2021/04/18 02:27:52;;;;;;;11.05;4.40;;;11.70;46.10;;;;;;5032551;28;20025;-63
2021/04/18 02:30:18;;;;;;;10.73;3.80;;;11.60;46.10;;;;;;5032558;28;20014;-63
2021/04/18 02:32:44;;;;;;;8.43;4.43;;;11.50;46.20;;;;;;5032888;28;20030;-66
2021/04/18 02:35:10;;;;;;;8.45;4.32;;;11.50;46.00;;;;;;5032569;28;20025;-64
2021/04/18 02:37:36;;;;;;;8.75;4.53;;;11.50;46.30;;;;;;5032755;28;20462;-64
2021/04/18 02:40:03;;;;;;;6.55;3.85;;;11.50;46.60;;;;;;5032526;28;20129;-62
2021/04/18 02:42:28;;;;;;;7.90;3.88;;;11.50;46.30;;;;;;5032569;28;20044;-66
2021/04/18 02:44:54;;;;;;;7.30;4.57;;;11.60;46.50;;;;;;5032792;28;20463;-63
2021/04/18 02:47:20;;;;;;;8.98;4.20;;;11.60;46.30;;;;;;5030990;28;20033;-63
2021/04/18 02:49:45;;;;;;;9.65;4.35;;;11.50;46.20;;;;;;5032747;28;20431;-67
2021/04/18 02:52:11;;;;;;;7.65;4.15;;;11.60;46.30;;;;;;5032246;28;20031;-62
2021/04/18 02:54:37;;;;;;;7.57;4.43;;;11.40;46.50;;;;;;5032426;28;20422;-63
2021/04/18 02:57:03;;;;;;;6.47;3.92;;;11.40;46.50;;;;;;5032451;28;20502;-62
2021/04/18 02:59:29;;;;;;;10.02;4.53;;;11.60;46.70;;;;;;5032394;28;20018;-62
2021/04/18 03:01:55;;;;;;;8.25;4.25;;;11.60;46.70;;;;;;5032466;28;20025;-64
2021/04/18 03:04:20;;;;;;;8.15;4.00;;;11.60;46.40;;;;;;5032125;28;20029;-64
2021/04/18 03:06:46;;;;;;;8.95;4.55;;;11.50;46.50;;;;;;5032214;28;20032;-63
2021/04/18 03:09:12;;;;;;;8.45;4.15;;;11.60;46.70;;;;;;5032677;28;20029;-65
2021/04/18 03:11:38;;;;;;;8.32;4.00;;;11.60;46.60;;;;;;5031965;28;20026;-62
2021/04/18 03:14:04;;;;;;;8.85;4.20;;;11.60;46.80;;;;;;5032317;28;20120;-65
2021/04/18 03:16:30;;;;;;;9.18;4.28;;;11.60;46.80;;;;;;5033489;28;20037;-65
2021/04/18 03:18:56;;;;;;;9.27;4.65;;;11.50;46.80;;;;;;5035774;28;20022;-63
2021/04/18 03:21:21;;;;;;;9.13;4.65;;;11.50;47.10;;;;;;5035480;28;20605;-65
2021/04/18 03:23:47;;;;;;;7.32;4.40;;;11.40;47.60;;;;;;5035856;28;20036;-63
2021/04/18 03:26:13;;;;;;;9.80;4.43;;;11.40;46.90;;;;;;5035958;28;20082;-64
2021/04/18 03:28:38;;;;;;;6.65;4.40;;;11.40;47.10;;;;;;5035417;28;20144;-62
2021/04/18 03:31:05;;;;;;;8.00;4.53;;;11.30;47.10;;;;;;5035524;28;20115;-63
2021/04/18 03:33:30;;;;;;;8.73;4.47;;;11.40;47.20;;;;;;5035535;28;20095;-66
2021/04/18 03:35:56;;;;;;;8.07;4.30;;;11.40;47.30;;;;;;5035388;28;20425;-63
2021/04/18 03:38:22;;;;;;;7.20;4.07;;;11.30;47.50;;;;;;5035524;28;20030;-62
2021/04/18 03:40:48;;;;;;;11.40;4.90;;;11.30;47.40;;;;;;5035343;28;20022;-64
2021/04/18 03:43:13;;;;;;;11.05;4.22;;;11.20;47.60;;;;;;5035506;28;20029;-63
2021/04/18 03:45:39;;;;;;;10.65;4.70;;;11.30;47.50;;;;;;5035367;28;20021;-62
2021/04/18 03:48:06;;;;;;;9.90;4.70;;;11.30;47.30;;;;;;5035365;28;20079;-65
2021/04/18 03:50:31;;;;;;;6.60;3.95;;;11.40;47.60;;;;;;5033876;28;20367;-66
2021/04/18 03:52:57;;;;;;;10.38;4.70;;;11.40;47.50;;;;;;5035152;28;20062;-63
2021/04/18 03:55:24;;;;;;;6.68;4.10;;;11.40;47.40;;;;;;5035130;28;20033;-68
2021/04/18 03:57:51;;;;;;;9.45;4.85;;;11.40;47.20;;;;;;5035216;28;20032;-63
2021/04/18 04:00:17;;;;;;;6.93;4.07;;;11.40;47.10;;;;;;5034776;28;20017;-65
2021/04/18 04:02:43;;;;;;;6.10;3.92;;;11.50;47.70;;;;;;5035050;28;20025;-63
2021/04/18 04:05:09;;;;;;;8.73;4.25;;;11.50;47.40;;;;;;5035177;28;20478;-66
2021/04/18 04:07:35;;;;;;;7.53;4.38;;;11.30;47.20;;;;;;5034764;28;20470;-66
2021/04/18 04:10:01;;;;;;;10.60;4.22;;;11.30;47.50;;;;;;5033702;28;20107;-64
2021/04/18 04:12:28;;;;;;;7.57;4.18;;;11.20;47.50;;;;;;5034849;28;20029;-63
2021/04/18 04:14:54;;;;;;;6.95;4.22;;;11.20;47.80;;;;;;5034909;28;20036;-63
2021/04/18 04:17:20;;;;;;;8.68;4.50;;;11.20;47.70;;;;;;5034871;28;20185;-65
2021/04/18 04:19:46;;;;;;;11.93;4.78;;;11.20;47.80;;;;;;5034797;28;20188;-63
2021/04/18 04:22:12;;;;;;;10.07;4.32;;;11.20;48.00;;;;;;5034476;28;20499;-64
2021/04/18 04:24:38;;;;;;;9.30;4.85;;;11.30;48.50;;;;;;5034625;28;20014;-62
2021/04/18 04:27:04;;;;;;;7.03;4.22;;;11.30;48.30;;;;;;5034161;28;20034;-65
2021/04/18 04:29:29;;;;;;;9.50;4.43;;;11.30;48.10;;;;;;5034307;28;20033;-64
2021/04/18 04:31:55;;;;;;;8.77;4.70;;;11.30;48.20;;;;;;5034395;28;20108;-63
2021/04/18 04:34:21;;;;;;;7.50;4.22;;;11.20;48.30;;;;;;5034549;28;20025;-63
2021/04/18 04:36:46;;;;;;;12.15;5.15;;;11.10;48.60;;;;;;5034474;28;20125;-65
2021/04/18 04:39:12;;;;;;;8.02;4.60;;;11.10;48.60;;;;;;5034367;28;20076;-64
2021/04/18 04:41:38;;;;;;;10.85;4.90;;;11.00;48.70;;;;;;5034371;28;20470;-64
2021/04/18 04:44:04;;;;;;;8.88;4.97;;;11.00;48.80;;;;;;5034372;28;20105;-64
2021/04/18 04:46:30;;;;;;;7.53;4.72;;;10.90;49.00;;;;;;5034480;28;20374;-63
2021/04/18 04:48:56;;;;;;;8.10;4.72;;;11.00;49.80;;;;;;5034040;28;20033;-64
2021/04/18 04:51:21;;;;;;;8.73;5.13;;;11.00;49.40;;;;;;5034513;28;20033;-62
2021/04/18 04:53:47;;;;;;;8.73;4.95;;;11.10;49.40;;;;;;5034132;28;20108;-65
2021/04/18 04:56:13;;;;;;;9.65;4.63;;;11.00;48.90;;;;;;5034152;28;20380;-63
2021/04/18 04:58:38;;;;;;;9.68;4.90;;;11.00;49.30;;;;;;5034129;28;20100;-64
2021/04/18 05:01:04;;;;;;;10.07;4.88;;;11.00;49.40;;;;;;5033879;28;20391;-63
2021/04/18 05:03:30;;;;;;;8.07;4.88;;;11.10;49.60;;;;;;5033754;28;20104;-63
2021/04/18 05:05:55;;;;;;;9.80;4.55;;;11.20;49.20;;;;;;5034113;28;20028;-67
2021/04/18 05:08:22;;;;;;;9.75;4.90;;;11.20;48.80;;;;;;5033618;28;20036;-65
2021/04/18 05:10:48;;;;;;;7.72;5.05;;;11.10;48.90;;;;;;5033788;28;20032;-65
2021/04/18 05:13:14;;;;;;;7.07;4.65;;;11.20;49.20;;;;;;5033957;28;20017;-63
2021/04/18 05:15:39;;;;;;;9.45;5.10;;;11.20;49.10;;;;;;5033767;28;20021;-63
2021/04/18 05:18:06;;;;;;;9.60;5.28;;;11.30;48.80;;;;;;5033848;28;20491;-63
2021/04/18 05:20:32;;;;;;;9.85;5.18;;;11.30;48.70;;;;;;5033738;28;20089;-64
2021/04/18 05:22:58;;;;;;;8.93;4.80;;;11.40;48.90;;;;;;5032963;28;20473;-62
2021/04/18 05:25:24;;;;;;;8.20;5.03;;;11.40;48.60;;;;;;5032084;28;20026;-64
2021/04/18 05:27:50;;;;;;;7.90;4.68;;;11.30;48.60;;;;;;5033408;28;20052;-63
2021/04/18 05:30:16;;;;;;;8.18;4.72;;;11.20;48.90;;;;;;5033362;28;20033;-64
2021/04/18 05:32:42;;;;;;;11.82;5.13;;;11.30;48.70;;;;;;5033662;28;20450;-64
2021/04/18 05:35:09;;;;;;;7.75;4.53;;;11.30;48.30;;;;;;5033627;28;20061;-62
2021/04/18 05:37:35;;;;;;;8.02;5.20;;;11.40;48.30;;;;;;5033284;28;20022;-63
2021/04/18 05:40:02;;;;;;;8.35;4.90;;;11.50;48.10;;;;;;5033056;28;20561;-63
2021/04/18 05:42:28;;;;;;;8.15;4.75;;;11.40;47.90;;;;;;5033138;28;20033;-64
2021/04/18 05:44:54;;;;;;;8.38;5.00;;;11.50;48.20;;;;;;5032190;28;20124;-63
2021/04/18 05:47:19;;;;;;;8.85;4.97;;;11.60;48.30;;;;;;5033582;28;20032;-63
2021/04/18 05:49:45;;;;;;;8.63;4.90;;;11.60;48.30;;;;;;5033348;28;20036;-63
2021/04/18 05:52:11;;;;;;;7.50;4.75;;;11.60;47.90;;;;;;5033060;28;20052;-63
2021/04/18 05:54:37;;;;;;;8.60;4.85;;;11.60;47.80;;;;;;5033049;28;20482;-64
2021/04/18 05:57:03;;;;;;;10.60;4.93;;;11.60;47.90;;;;;;5033047;28;20396;-64
2021/04/18 05:59:29;;;;;;;8.77;4.68;;;11.80;48.00;;;;;;5033203;28;20024;-64
2021/04/18 06:01:54;;;;;;;9.15;5.28;;;12.00;47.60;;;;;;5032924;28;20486;-63
2021/04/18 06:04:20;;;;;;;10.63;5.30;;;12.10;47.30;;;;;;5033190;28;20021;-62
2021/04/18 06:06:46;;;;;;;9.38;5.40;;;12.20;47.10;;;;;;5033060;28;20347;-65
2021/04/18 06:09:11;;;;;;;8.82;4.93;;;12.30;46.90;;;;;;5033010;28;20025;-63
2021/04/18 06:11:37;;;;;;;8.68;5.22;;;12.30;46.70;;;;;;5032962;28;20525;-63
2021/04/18 06:14:03;;;;;;;7.72;4.88;;;12.50;46.60;;;;;;5033478;28;20095;-65
2021/04/18 06:16:29;;;;;;;8.32;5.20;;;12.60;46.40;;;;;;5033063;28;20040;-64
2021/04/18 06:18:54;;;;;;;7.55;5.28;;;12.80;46.50;;;;;;5032893;28;20112;-64
2021/04/18 06:21:20;;;;;;;10.27;5.40;;;13.00;46.30;;;;;;5032115;28;20022;-64
2021/04/18 06:23:46;;;;;;;9.95;5.28;;;13.20;46.10;;;;;;5032775;28;20037;-66
2021/04/18 06:26:12;;;;;;;8.50;5.20;;;13.50;46.10;;;;;;5032777;28;20053;-66
2021/04/18 06:28:38;;;;;;;12.18;5.97;;;13.60;45.50;;;;;;5032999;28;20467;-63
2021/04/18 06:31:05;;;;;;;7.93;5.35;;;13.60;45.30;;;;;;5031544;28;20036;-62
2021/04/18 06:33:30;;;;;;;9.38;5.47;;;13.70;45.30;;;;;;5031404;28;20044;-65
2021/04/18 06:35:56;;;;;;;7.60;5.00;;;13.70;45.10;;;;;;5032944;28;20440;-65
2021/04/18 06:38:22;;;;;;;9.90;5.70;;;13.80;45.40;;;;;;5032944;28;20134;-64
2021/04/18 06:40:54;;;;;;;10.52;5.40;;;13.80;45.30;;;;;;5032932;28;20116;-64
2021/04/18 06:43:21;;;;;;;12.02;5.53;;;13.80;45.40;;;;;;5032446;28;20106;-64
2021/04/18 06:45:52;;;;;;;8.60;5.65;;;13.90;45.10;;;;;;5032607;28;20022;-64
2021/04/18 06:48:19;;;;;;;7.10;4.47;;;14.00;45.00;;;;;;5032756;28;20054;-66
2021/04/18 06:50:46;;;;;;;11.57;5.60;;;14.10;45.00;;;;;;5031684;28;20060;-70
2021/04/18 06:53:12;;;;;;;7.85;4.97;;;14.30;44.80;;;;;;5036475;28;20097;-65
2021/04/18 06:55:38;;;;;;;10.57;4.80;;;14.40;44.60;;;;;;5034758;28;20125;-68
2021/04/18 06:58:04;;;;;;;10.57;5.60;;;14.40;44.50;;;;;;5036269;28;20037;-70
2021/04/18 07:00:30;;;;;;;8.75;5.47;;;14.50;44.70;;;;;;5036366;28;20032;-65
2021/04/18 07:03:14;;;;;;;7.38;4.95;;;14.70;44.60;;;;;;5036307;28;20022;-71
2021/04/18 07:05:45;;;;;;;8.27;5.28;;;14.90;44.60;;;;;;5036250;28;20517;-68
2021/04/18 07:08:31;;;;;;;8.05;5.80;;;15.00;44.60;;;;;;5036190;28;20033;-68
2021/04/18 07:11:40;;;;;;;9.77;5.25;;;15.10;44.40;;;;;;5035968;28;20029;-69
2021/04/18 07:14:19;;;;;;;9.18;5.68;;;15.10;44.40;;;;;;5007506;28;20044;-65
2021/04/18 07:16:45;;;;;;;8.95;5.35;;;15.10;45.00;;;;;;5036056;28;20558;-66
2021/04/18 07:19:24;;;;;;;8.65;5.63;;;15.00;44.50;;;;;;5036005;28;20049;-66
2021/04/18 07:21:53;;;;;;;10.90;5.97;;;14.90;44.40;;;;;;5034425;28;20069;-66
2021/04/18 07:24:20;;;;;;;11.02;5.75;;;14.80;45.00;;;;;;5035894;28;20036;-67
2021/04/18 07:26:58;;;;;;;15.50;6.28;;;14.80;45.10;;;;;;5035777;28;20064;-66
2021/04/18 07:29:26;;;;;;;11.45;5.47;;;14.80;45.10;;;;;;5036264;28;20017;-67
2021/04/18 07:31:53;;;;;;;9.98;5.72;;;14.80;45.30;;;;;;5035691;28;20029;-66
2021/04/18 07:34:21;;;;;;;11.68;5.53;;;14.90;45.10;;;;;;5035582;28;20046;-65
2021/04/18 07:36:49;;;;;;;11.27;5.95;;;15.00;45.10;;;;;;5035284;28;20037;-68
2021/04/18 07:39:16;;;;;;;8.18;5.88;;;15.00;45.30;;;;;;5035814;28;20018;-65
2021/04/18 07:41:54;;;;;;;10.95;6.07;;;15.00;45.10;;;;;;5035662;28;20029;-67
2021/04/18 07:44:20;;;;;;;11.25;6.38;;;15.10;45.30;;;;;;5035799;28;20021;-69
2021/04/18 07:46:49;;;;;;;12.88;5.93;;;15.10;45.30;;;;;;5035517;28;20105;-68
2021/04/18 07:49:16;;;;;;;7.90;5.63;;;15.10;45.20;;;;;;5035401;28;20052;-66
2021/04/18 07:51:47;;;;;;;11.93;5.80;;;15.30;45.40;;;;;;5035137;28;20104;-65
2021/04/18 07:54:14;;;;;;;9.48;6.00;;;15.40;45.60;;;;;;5035359;28;20029;-67
2021/04/18 07:56:47;;;;;;;11.40;6.38;;;15.40;45.60;;;;;;5035357;28;20038;-67
2021/04/18 07:59:14;;;;;;;9.13;5.78;;;15.40;45.60;;;;;;5035442;28;20025;-65
2021/04/18 08:01:40;;;;;;;9.57;6.32;;;15.30;45.40;;;;;;5034657;28;20032;-66
2021/04/18 08:04:07;;;;;;;10.23;6.43;;;15.30;45.60;;;;;;5034917;28;20029;-66
2021/04/18 08:06:33;;;;;;;11.02;6.72;;;15.40;45.60;;;;;;5034962;28;20037;-68
2021/04/18 08:08:58;;;;;;;11.68;6.82;;;15.50;45.90;;;;;;5035189;28;20017;-66
2021/04/18 08:11:24;;;;;;;12.98;6.93;;;15.60;45.90;;;;;;5034908;28;20032;-66
2021/04/18 08:13:54;;;;;;;9.80;7.10;;;15.70;46.30;;;;;;5035020;28;20104;-66
2021/04/18 08:16:31;;;;;;;13.07;6.50;;;15.80;46.00;;;;;;5034965;28;20034;-64
2021/04/18 08:19:08;;;;;;;12.48;6.97;;;15.90;46.40;;;;;;5033675;28;20029;-66
2021/04/18 08:21:37;;;;;;;8.70;6.22;;;16.10;46.30;;;;;;5033920;28;20037;-67
2021/04/18 08:24:27;;;;;;;9.20;6.28;;;16.30;46.40;;;;;;5034307;28;20384;-66
2021/04/18 08:27:04;;;;;;;13.77;7.80;;;16.30;46.50;;;;;;5023724;28;20116;-65
2021/04/18 08:29:30;;;;;;;11.35;6.22;;;16.40;45.80;;;;;;5034311;28;20505;-64
2021/04/18 08:32:09;;;;;;;10.02;6.22;;;16.50;46.00;;;;;;5034415;28;20108;-66
2021/04/18 08:34:42;;;;;;;8.38;6.10;;;16.50;46.10;;;;;;5034228;28;20471;-65
2021/04/18 08:37:14;;;;;;;9.70;5.40;;;16.40;45.70;;;;;;5032865;28;20446;-66
2021/04/18 08:39:41;;;;;;;11.95;5.80;;;16.40;46.50;;;;;;5034386;28;20045;-66
2021/04/18 08:42:09;;;;;;;12.48;5.43;;;16.50;46.50;;;;;;5033974;28;20026;-67
2021/04/18 08:44:37;;;;;;;10.30;6.40;;;16.60;46.50;;;;;;5034257;28;20445;-66
2021/04/18 08:47:08;;;;;;;10.65;5.70;;;16.70;46.40;;;;;;5034165;28;20092;-64
2021/04/18 08:49:36;;;;;;;8.70;5.70;;;16.80;46.50;;;;;;5034293;28;20033;-66
2021/04/18 08:52:06;;;;;;;7.90;4.53;;;16.90;46.40;;;;;;5034059;28;20029;-66
2021/04/18 08:54:44;;;;;;;14.57;4.60;;;17.00;46.40;;;;;;5034351;28;20022;-65
2021/04/18 08:57:11;;;;;;;8.18;4.78;;;17.00;46.50;;;;;;5033973;28;20052;-64
2021/04/18 08:59:39;;;;;;;7.72;4.80;;;17.00;46.50;;;;;;5034257;28;20024;-66
2021/04/18 09:02:10;;;;;;;11.57;4.55;;;17.00;46.60;;;;;;5032962;28;20025;-66
2021/04/18 09:05:04;;;;;;;11.90;4.38;;;17.00;46.70;;;;;;5034034;28;20033;-66
2021/04/18 09:07:43;;;;;;;13.55;4.50;;;17.00;46.30;;;;;;5031311;28;20041;-65
2021/04/18 09:10:11;;;;;;;11.88;4.10;;;17.00;46.50;;;;;;5034078;28;20029;-67
2021/04/18 09:12:37;;;;;;;7.93;2.95;;;16.90;46.30;;;;;;5033739;28;20032;-64
2021/04/18 09:15:06;;;;;;;7.70;3.15;;;16.80;46.50;;;;;;5033243;28;20025;-67
2021/04/18 09:17:33;;;;;;;9.43;3.20;;;16.70;46.90;;;;;;5033701;28;20482;-67
2021/04/18 09:20:01;;;;;;;6.38;2.90;;;16.70;46.70;;;;;;5033699;28;20089;-64
2021/04/18 09:22:29;;;;;;;5.82;2.70;;;16.60;46.50;;;;;;5033356;28;20049;-67
2021/04/18 09:25:06;;;;;;;13.85;3.20;;;16.50;46.10;;;;;;5034033;28;20113;-67
2021/04/18 09:27:36;;;;;;;6.57;3.10;;;16.50;45.40;;;;;;5033700;28;20097;-65
2021/04/18 09:30:09;;;;;;;6.40;2.90;;;16.40;46.00;;;;;;5033414;28;20083;-64
2021/04/18 09:32:37;;;;;;;9.32;3.83;;;16.40;45.40;;;;;;5032475;28;20489;-65
2021/04/18 09:35:04;;;;;;;7.35;3.65;;;16.50;46.10;;;;;;5033192;28;20029;-64
2021/04/18 09:37:36;;;;;;;8.57;3.60;;;16.50;46.20;;;;;;5033098;28;20033;-65
2021/04/18 09:40:06;;;;;;;10.38;4.32;;;16.60;45.90;;;;;;5033441;28;20086;-65
2021/04/18 09:42:34;;;;;;;7.43;3.30;;;16.70;46.60;;;;;;5033028;28;20044;-65
2021/04/18 09:45:13;;;;;;;8.32;3.13;;;16.70;47.10;;;;;;5033172;28;20021;-65
2021/04/18 09:47:43;;;;;;;6.25;3.15;;;16.80;46.10;;;;;;5033430;28;20075;-65
2021/04/18 09:50:22;;;;;;;9.20;3.08;;;16.90;47.20;;;;;;5033216;28;20030;-67
2021/04/18 09:52:49;;;;;;;7.75;2.90;;;16.90;46.10;;;;;;5033179;28;20018;-64
2021/04/18 09:55:17;;;;;;;10.00;3.00;;;17.00;47.30;;;;;;5033300;28;20022;-67
2021/04/18 09:57:47;;;;;;;7.70;3.53;;;17.10;47.20;;;;;;5033136;28;20025;-67
2021/04/18 10:00:24;;;;;;;8.20;3.17;;;17.20;46.30;;;;;;5033101;28;20532;-66
2021/04/18 10:03:00;;;;;;;6.45;3.00;;;17.20;47.40;;;;;;5033393;28;20030;-67
2021/04/18 10:05:26;;;;;;;7.50;3.30;;;17.30;47.30;;;;;;5031781;28;20033;-65
2021/04/18 10:08:16;;;;;;;6.90;3.13;;;17.40;47.40;;;;;;5031890;28;20063;-68
2021/04/18 10:10:42;;;;;;;6.07;2.70;;;17.50;46.50;;;;;;5032964;28;20046;-71
2021/04/18 10:13:08;;;;;;;6.15;2.50;;;17.60;47.10;;;;;;5032695;28;20474;-66
2021/04/18 10:15:33;;;;;;;4.90;2.80;;;17.60;47.00;;;;;;5032761;28;20033;-70
2021/04/18 10:18:09;;;;;;;7.88;3.15;;;17.70;47.00;;;;;;5032881;28;20037;-69
2021/04/18 10:20:36;;;;;;;9.05;3.00;;;17.70;46.60;;;;;;5031395;28;20038;-68
2021/04/18 10:23:10;;;;;;;8.70;2.80;;;17.80;46.50;;;;;;5032725;28;20053;-67
2021/04/18 10:25:37;;;;;;;7.38;2.80;;;17.80;46.30;;;;;;5033043;28;20029;-65
2021/04/18 10:28:04;;;;;;;7.65;3.25;;;17.90;46.30;;;;;;5036662;28;20021;-68
2021/04/18 10:30:31;;;;;;;5.53;2.50;;;18.00;45.90;;;;;;5036884;28;20026;-64
2021/04/18 10:32:58;;;;;;;7.35;2.40;;;18.10;45.80;;;;;;5037037;28;20044;-66
2021/04/18 10:35:24;;;;;;;6.88;3.22;;;18.30;45.60;;;;;;5037103;28;20083;-64
2021/04/18 10:37:50;;;;;;;6.15;2.75;;;18.50;45.50;;;;;;5036873;28;20056;-67
2021/04/18 10:40:19;;;;;;;5.22;2.03;;;18.50;44.60;;;;;;5036603;28;20478;-68
2021/04/18 10:42:46;;;;;;;6.72;2.72;;;18.60;44.10;;;;;;5036545;28;20037;-66
2021/04/18 10:45:12;;;;;;;6.95;2.42;;;18.70;43.40;;;;;;5036868;28;20018;-65
2021/04/18 10:47:39;;;;;;;6.15;2.28;;;18.80;42.70;;;;;;5036809;28;20375;-65
2021/04/18 10:50:05;;;;;;;5.93;2.20;;;18.80;42.70;;;;;;5036571;28;20014;-65
2021/04/18 10:52:32;;;;;;;5.88;2.55;;;18.90;42.60;;;;;;5036591;28;20034;-66
2021/04/18 10:54:58;;;;;;;5.57;2.40;;;19.00;42.80;;;;;;5036617;28;20068;-66
2021/04/18 10:57:24;;;;;;;4.22;1.90;;;19.00;42.70;;;;;;5036435;28;20030;-66
2021/04/18 10:59:50;;;;;;;7.03;2.28;;;19.00;42.20;;;;;;5036548;28;20480;-66
2021/04/18 11:02:16;;;;;;;6.13;2.42;;;18.90;42.40;;;;;;5036475;28;20017;-65
2021/04/18 11:04:42;;;;;;;5.20;2.22;;;18.80;42.70;;;;;;5036318;28;20134;-64
2021/04/18 11:07:08;;;;;;;11.18;2.55;;;18.80;43.20;;;;;;5036309;28;20102;-64
2021/04/18 11:09:36;;;;;;;7.63;2.63;;;18.90;44.00;;;;;;5035037;28;20559;-65
2021/04/18 11:12:01;;;;;;;5.30;2.30;;;18.90;44.60;;;;;;5034770;28;20025;-65
2021/04/18 11:14:28;;;;;;;9.82;2.90;;;18.80;44.80;;;;;;5036042;28;20360;-65
2021/04/18 11:16:54;;;;;;;8.02;2.90;;;18.70;45.20;;;;;;5036019;28;20108;-70
2021/04/18 11:19:20;;;;;;;6.35;3.10;;;18.50;44.80;;;;;;5036137;28;20025;-71
2021/04/18 11:21:45;;;;;;;5.97;2.90;;;18.10;43.90;;;;;;5035290;28;20052;-66
2021/04/18 11:24:11;;;;;;;7.68;2.63;;;17.90;44.00;;;;;;5036014;28;20053;-65
2021/04/18 11:26:37;;;;;;;13.18;3.72;;;17.70;44.30;;;;;;5035654;28;20017;-66
2021/04/18 11:29:03;;;;;;;9.88;3.15;;;17.50;44.70;;;;;;5034828;28;20040;-67
2021/04/18 11:31:29;;;;;;;8.80;2.70;;;17.40;44.80;;;;;;5035557;28;20026;-65
2021/04/18 11:33:55;;;;;;;8.15;2.67;;;17.30;44.90;;;;;;5035541;28;20108;-65
2021/04/18 11:36:21;;;;;;;6.03;2.70;;;17.10;44.80;;;;;;5035029;28;20040;-67
2021/04/18 11:38:47;;;;;;;11.45;3.38;;;17.10;45.40;;;;;;5034973;28;20037;-65
2021/04/18 11:41:13;;;;;;;8.45;3.40;;;17.10;45.30;;;;;;5034907;28;20101;-65
2021/04/18 11:43:38;;;;;;;9.05;3.58;;;17.20;45.10;;;;;;5034675;28;20033;-69
2021/04/18 11:46:06;;;;;;;21.88;17.23;;;17.40;45.10;;;;;;5035218;28;20018;-66
2021/04/18 11:48:32;;;;;;;8.73;5.15;;;17.70;45.70;;;;;;5033839;28;20112;-66
2021/04/18 11:50:58;;;;;;;6.00;3.08;;;18.00;45.50;;;;;;5033930;28;20035;-64
2021/04/18 11:53:24;;;;;;;6.05;2.88;;;18.20;44.50;;;;;;5035136;28;20677;-69
2021/04/18 11:55:50;;;;;;;6.78;3.25;;;18.30;44.60;;;;;;5035067;28;20041;-65
2021/04/18 11:58:17;;;;;;;7.80;3.20;;;18.30;44.70;;;;;;5034168;28;20400;-65
2021/04/18 12:00:43;;;;;;;8.13;3.58;;;18.30;45.10;;;;;;5035296;28;20091;-65
2021/04/18 12:03:09;;;;;;;5.70;2.63;;;18.30;45.30;;;;;;5035066;28;20025;-65
2021/04/18 12:05:37;;;;;;;5.95;2.80;;;18.30;45.50;;;;;;5035133;28;20048;-64
2021/04/18 12:08:02;;;;;;;8.05;3.15;;;18.30;45.70;;;;;;5034929;28;20032;-65
2021/04/18 12:10:28;;;;;;;6.50;3.08;;;18.30;46.00;;;;;;5033521;28;20030;-65
2021/04/18 12:12:54;;;;;;;6.75;3.45;;;18.20;46.10;;;;;;5034668;28;20049;-65
2021/04/18 12:15:20;;;;;;;7.22;3.20;;;18.20;46.20;;;;;;5034787;28;20033;-65
2021/04/18 12:17:45;;;;;;;7.05;3.00;;;18.30;46.70;;;;;;5035095;28;20439;-63
2021/04/18 12:20:13;;;;;;;5.20;2.20;;;18.30;46.30;;;;;;5034790;28;20487;-65
2021/04/18 12:22:40;;;;;;;6.65;2.10;;;18.40;45.90;;;;;;5034589;28;20042;-64
2021/04/18 12:25:09;;;;;;;6.70;2.55;;;18.60;45.60;;;;;;5034618;28;20056;-64
2021/04/18 12:27:34;;;;;;;8.45;2.40;;;18.80;45.10;;;;;;5034352;28;20036;-64
2021/04/18 12:30:00;;;;;;;4.53;1.90;;;19.00;44.90;;;;;;5034610;28;20021;-65
2021/04/18 12:32:26;;;;;;;6.82;2.08;;;19.10;44.20;;;;;;5034522;28;20029;-64
2021/04/18 12:34:52;;;;;;;5.82;2.30;;;19.20;44.00;;;;;;5034251;28;20017;-64
2021/04/18 12:37:18;;;;;;;3.88;1.90;;;19.30;43.60;;;;;;5034350;28;20037;-64
2021/04/18 12:39:45;;;;;;;7.40;2.22;;;19.30;42.90;;;;;;5034167;28;20018;-65
2021/04/18 12:42:10;;;;;;;7.28;2.35;;;19.20;42.70;;;;;;5034278;28;20061;-64
2021/04/18 12:44:36;;;;;;;9.27;2.03;;;19.10;43.40;;;;;;5034278;28;20099;-65
2021/04/18 12:47:02;;;;;;;6.30;2.25;;;19.00;44.00;;;;;;5033949;28;20545;-64